Airfield :
LOGIN :

Register | Disclaimer

   EN    FR    IT 

 










Legend :    VFR   Marginal VFR   IFR   Intensive IFR   Very Intensive IFR
Visi :
Ceiling :
>= 8 km
>= 3000ft
5 to 8 km
1000 to 3000 ft
1500m to 5 km
500 to 1000 ft
800 to 1500m
200 to 500 ft
< 800m
< 200 ft
Symbols :   Thunderstorms  Fog  Heavy snow  Heavy precipitations  Wind > 20 kt
SIGMETs :     Misc.  Thunderstorms  Icing  Turbulence  Mountain Waves  Volcanic Ashes







- Airport Elevation : 784 ft
- IATA code : TZL


LQTZ - Tuzla

CURRENT METAR :
  • 180800Z VRB01KT 6000 BKN010 OVC020 00/M01 Q1025

EXPIRED METARs :
  • 180730Z VRB01KT 6000 SCT010 OVC020 M00/M01 Q1025
  • 180700Z VRB01KT 5000 BR SCT010 OVC020 M00/M01 Q1025
  • 180630Z VRB02KT 5000 BR SCT010 OVC020 M00/M01 Q1025
  • 180600Z VRB01KT 6000 SCT010 BKN020 M00/M01 Q1025
  • 180530Z VRB01KT 7000 FEW009 BKN020 M00/M01 Q1025

TAF COR TAF LQTZ
Valid from the 18 at 06:00 until the 19 at 06:00 UTC


180500Z 1806/1906 09006KT 9999 BKN033 TX03/1813Z TNM02/1906Z
PROB30
TEMPO 1812/1817 4000 -SN BR BKN010 BKN030
PROB40
TEMPO 1817/1906 2000 SN BR BKN005 OVC030
No reported NOTAMs for that airfield.



MET'MAP, your aeronautical weather chart ! - Copyright ORBIFLY December 2007 - Disclaimer

ORBIFLY MET'MAP TEAM :

Programming & Development : Alexandra Zaïnal
Concept & Development : Baudouin d'Aumeries
Co-Development & Prog : Marc-Olivier Méhu
Technical & hardware support : Manuel Goepfert

Contact : metmap@orbifly.com




SOURCES & CREDITS :

   NOAA